Time;durP1;ratioP1;P1;durP2;ratioP2;P2;SDS_P1;SDS_P2;PMS_P1;PMS_P2;Temp;Humidity;BMP_temperature;BMP_pressure;BME280_temperature;BME280_humidity;BME280_pressure;Samples;Min_cycle;Max_cycle;Signal;HPM_P1;HPM_P2
2023/03/26 00:00:39;;;;;;;;;;;20.40;41.30;;;;;;5053450;28;19924;-57
2023/03/26 00:03:06;;;;;;;;;;;20.40;41.30;;;;;;5055923;28;19921;-57
2023/03/26 00:05:33;;;;;;;;;;;20.30;41.20;;;;;;5053753;28;20011;-57
2023/03/26 00:08:00;;;;;;;;;;;20.40;41.30;;;;;;5053849;28;19932;-57
2023/03/26 00:10:26;;;;;;;;;;;20.30;41.20;;;;;;5053010;28;19920;-56
2023/03/26 00:12:55;;;;;;;;;;;20.30;41.20;;;;;;5053380;28;19931;-57
2023/03/26 00:15:21;;;;;;;;;;;20.30;41.20;;;;;;5053883;28;19970;-56
2023/03/26 00:17:48;;;;;;;;;;;20.30;41.20;;;;;;5052631;28;19924;-57
2023/03/26 00:20:15;;;;;;;;;;;20.30;41.30;;;;;;5054404;28;19927;-58
2023/03/26 00:22:42;;;;;;;;;;;20.30;41.30;;;;;;5053674;28;19921;-57
2023/03/26 00:25:12;;;;;;;;;;;20.30;41.30;;;;;;5053360;28;19940;-56
2023/03/26 00:27:39;;;;;;;;;;;20.30;41.30;;;;;;5068923;28;19920;-54
2023/03/26 00:30:08;;;;;;;;;;;20.30;41.30;;;;;;5071352;28;19981;-55
2023/03/26 00:32:35;;;;;;;;;;;20.30;41.30;;;;;;5067736;28;20005;-56
2023/03/26 00:35:02;;;;;;;;;;;20.20;41.20;;;;;;5052922;28;19966;-56
2023/03/26 00:37:29;;;;;;;;;;;20.20;41.20;;;;;;5052817;28;19920;-54
2023/03/26 00:39:58;;;;;;;;;;;20.20;41.20;;;;;;5052995;28;19924;-56
2023/03/26 00:42:25;;;;;;;;;;;20.20;41.20;;;;;;5052549;28;20433;-56
2023/03/26 00:44:54;;;;;;;;;;;20.20;41.30;;;;;;5052975;28;19965;-55
2023/03/26 00:47:22;;;;;;;;;;;20.20;41.30;;;;;;5052905;28;20238;-55
2023/03/26 00:49:49;;;;;;;;;;;20.20;41.20;;;;;;5051661;28;19970;-55
2023/03/26 00:52:17;;;;;;;;;;;20.20;41.30;;;;;;5055157;28;19921;-55
2023/03/26 00:54:44;;;;;;;;;;;20.20;41.30;;;;;;5070661;28;19946;-54
2023/03/26 00:57:12;;;;;;;;;;;20.20;41.20;;;;;;5052978;28;19927;-53
2023/03/26 00:59:39;;;;;;;;;;;20.20;41.30;;;;;;5050350;28;19987;-55
2023/03/26 01:02:09;;;;;;;;;;;20.20;41.30;;;;;;5054810;28;20255;-54
2023/03/26 01:04:37;;;;;;;;;;;20.20;41.30;;;;;;5052261;28;19966;-54
2023/03/26 01:07:04;;;;;;;;;;;20.20;41.30;;;;;;5066242;28;20409;-54
2023/03/26 01:09:32;;;;;;;;;;;20.20;41.30;;;;;;5051942;28;19928;-55
2023/03/26 01:11:59;;;;;;;;;;;20.10;41.30;;;;;;5052602;28;19920;-53
2023/03/26 01:14:27;;;;;;;;;;;20.10;41.30;;;;;;5052266;28;19921;-56
2023/03/26 01:16:54;;;;;;;;;;;20.10;41.40;;;;;;5070401;28;19921;-52
2023/03/26 01:19:24;;;;;;;;;;;20.10;41.30;;;;;;5052375;28;19924;-55
2023/03/26 01:21:52;;;;;;;;;;;20.10;41.40;;;;;;5069901;28;19920;-54
2023/03/26 01:24:21;;;;;;;;;;;20.00;41.20;;;;;;5051246;28;19920;-56
2023/03/26 01:27:06;;;;;;;;;;;20.00;41.30;;;;;;5051948;28;19930;-56
2023/03/26 01:29:34;;;;;;;;;;;20.00;41.20;;;;;;5050168;28;19924;-56
2023/03/26 01:32:08;;;;;;;;;;;20.00;41.20;;;;;;5052164;28;19931;-55
2023/03/26 01:34:37;;;;;;;;;;;20.00;41.30;;;;;;5051758;28;19963;-57
2023/03/26 01:37:07;;;;;;;;;;;19.90;41.20;;;;;;5050260;28;20037;-55
2023/03/26 01:39:39;;;;;;;;;;;19.90;41.20;;;;;;5051737;28;19932;-56
2023/03/26 01:42:07;;;;;;;;;;;19.90;41.20;;;;;;5047197;28;19927;-54
2023/03/26 01:44:34;;;;;;;;;;;19.90;41.20;;;;;;5051198;28;19960;-55
2023/03/26 01:47:01;;;;;;;;;;;19.90;41.20;;;;;;5052020;28;19925;-55
2023/03/26 01:49:28;;;;;;;;;;;19.80;41.10;;;;;;5051563;28;19993;-57
2023/03/26 01:51:55;;;;;;;;;;;19.90;41.20;;;;;;5053352;28;19921;-56
2023/03/26 01:54:22;;;;;;;;;;;19.80;41.10;;;;;;5051714;28;20011;-56
2023/03/26 01:56:53;;;;;;;;;;;19.80;41.10;;;;;;5072213;28;19924;-54
2023/03/26 01:59:24;;;;;;;;;;;19.80;41.10;;;;;;5050886;28;20297;-56
2023/03/26 02:01:53;;;;;;;;;;;19.80;41.10;;;;;;5052012;28;19924;-56
2023/03/26 02:04:22;;;;;;;;;;;19.80;41.10;;;;;;5050889;28;19920;-55
2023/03/26 02:06:51;;;;;;;;;;;19.80;41.00;;;;;;5051825;28;19942;-57
2023/03/26 02:09:18;;;;;;;;;;;19.80;41.00;;;;;;5069506;28;20109;-55
2023/03/26 02:11:45;;;;;;;;;;;19.90;41.20;;;;;;5067222;28;20309;-56
2023/03/26 02:14:13;;;;;;;;;;;19.80;41.10;;;;;;5051622;28;19921;-56
2023/03/26 02:16:44;;;;;;;;;;;19.80;41.00;;;;;;5069480;28;19928;-56
2023/03/26 02:19:14;;;;;;;;;;;19.80;41.00;;;;;;5050858;28;19924;-54
2023/03/26 02:21:41;;;;;;;;;;;19.80;41.00;;;;;;5051486;28;19925;-55
2023/03/26 02:24:08;;;;;;;;;;;19.80;41.00;;;;;;5051970;28;20337;-53
2023/03/26 02:26:36;;;;;;;;;;;19.80;40.90;;;;;;5068887;28;19920;-56
2023/03/26 02:29:03;;;;;;;;;;;19.80;40.90;;;;;;5051739;28;19952;-56
2023/03/26 02:31:31;;;;;;;;;;;19.80;40.90;;;;;;5051054;28;19981;-56
2023/03/26 02:33:58;;;;;;;;;;;19.80;40.90;;;;;;5050277;28;19928;-57
2023/03/26 02:36:26;;;;;;;;;;;19.80;40.90;;;;;;5048658;28;19920;-56
2023/03/26 02:38:52;;;;;;;;;;;19.80;40.90;;;;;;5051341;28;19927;-57
2023/03/26 02:41:19;;;;;;;;;;;19.80;40.90;;;;;;5050823;28;19989;-57
2023/03/26 02:43:46;;;;;;;;;;;19.80;40.80;;;;;;5066782;28;19921;-57
2023/03/26 02:46:13;;;;;;;;;;;19.80;40.80;;;;;;5051491;28;19928;-58
2023/03/26 02:48:41;;;;;;;;;;;19.80;40.80;;;;;;5069073;28;19935;-57
2023/03/26 02:51:08;;;;;;;;;;;19.70;40.70;;;;;;5048653;28;19924;-57
2023/03/26 02:53:36;;;;;;;;;;;19.70;40.70;;;;;;5053178;28;19931;-55
2023/03/26 02:56:03;;;;;;;;;;;19.80;40.80;;;;;;5055779;28;19920;-56
2023/03/26 02:58:30;;;;;;;;;;;19.70;40.70;;;;;;5054975;28;19924;-66
2023/03/26 03:00:57;;;;;;;;;;;19.70;40.70;;;;;;5055277;28;20002;-65
2023/03/26 03:03:24;;;;;;;;;;;19.70;40.70;;;;;;5072634;28;19920;-67
2023/03/26 03:05:52;;;;;;;;;;;19.70;40.70;;;;;;5052293;28;19926;-66
2023/03/26 03:08:19;;;;;;;;;;;19.80;40.80;;;;;;5070592;28;19949;-67
2023/03/26 03:10:55;;;;;;;;;;;19.80;40.80;;;;;;5051418;28;19928;-66
2023/03/26 03:13:21;;;;;;;;;;;19.80;40.80;;;;;;5054814;28;20014;-67
2023/03/26 03:15:48;;;;;;;;;;;19.80;40.80;;;;;;5072307;28;19932;-66
2023/03/26 03:18:15;;;;;;;;;;;19.80;40.70;;;;;;5056073;28;19924;-67
2023/03/26 03:20:42;;;;;;;;;;;19.90;40.80;;;;;;5054679;28;19971;-66
2023/03/26 03:23:10;;;;;;;;;;;19.90;40.80;;;;;;5054196;28;20382;-67
2023/03/26 03:25:39;;;;;;;;;;;19.90;40.80;;;;;;5054043;28;20362;-66
2023/03/26 03:28:07;;;;;;;;;;;19.90;40.80;;;;;;5054466;28;19920;-64
2023/03/26 03:30:33;;;;;;;;;;;19.90;40.80;;;;;;5054324;28;19920;-67
2023/03/26 03:33:01;;;;;;;;;;;19.90;40.80;;;;;;5054524;28;19924;-66
2023/03/26 03:35:28;;;;;;;;;;;19.90;40.80;;;;;;5070936;28;19920;-67
2023/03/26 03:37:55;;;;;;;;;;;19.90;40.80;;;;;;5053259;28;19921;-67
2023/03/26 03:40:23;;;;;;;;;;;20.00;40.90;;;;;;5054061;28;19928;-67
2023/03/26 03:42:50;;;;;;;;;;;20.00;40.90;;;;;;5054406;28;19928;-65
2023/03/26 03:45:17;;;;;;;;;;;20.00;40.90;;;;;;5053964;28;19924;-67
2023/03/26 03:47:43;;;;;;;;;;;20.00;41.00;;;;;;5055545;28;19921;-66
2023/03/26 03:50:10;;;;;;;;;;;20.00;41.00;;;;;;5072226;28;19950;-65
2023/03/26 03:52:37;;;;;;;;;;;20.00;41.00;;;;;;5054013;28;19924;-66
2023/03/26 03:55:04;;;;;;;;;;;20.00;41.00;;;;;;5072033;28;19939;-65
2023/03/26 03:57:33;;;;;;;;;;;20.00;41.00;;;;;;5069526;28;19924;-65
2023/03/26 04:00:00;;;;;;;;;;;20.00;41.10;;;;;;5054912;28;19920;-67
2023/03/26 04:02:28;;;;;;;;;;;20.00;41.10;;;;;;5072503;28;19974;-67
2023/03/26 04:04:56;;;;;;;;;;;20.00;41.20;;;;;;5054301;28;19924;-67
2023/03/26 04:07:23;;;;;;;;;;;20.00;41.10;;;;;;5055829;28;19956;-67
2023/03/26 04:09:49;;;;;;;;;;;20.00;41.10;;;;;;5053497;28;19920;-68
2023/03/26 04:12:17;;;;;;;;;;;20.00;41.20;;;;;;5053530;28;19948;-66
2023/03/26 04:14:45;;;;;;;;;;;20.00;41.20;;;;;;5053636;28;19921;-67
2023/03/26 04:17:14;;;;;;;;;;;20.10;41.20;;;;;;5071460;28;19943;-66
2023/03/26 04:19:42;;;;;;;;;;;20.10;41.30;;;;;;5058767;28;19930;-67
2023/03/26 04:22:10;;;;;;;;;;;20.10;41.30;;;;;;5055136;28;20010;-66
2023/03/26 04:24:39;;;;;;;;;;;20.10;41.30;;;;;;5053425;28;19931;-66
2023/03/26 04:27:07;;;;;;;;;;;20.10;41.40;;;;;;5053478;28;20007;-66
2023/03/26 04:29:37;;;;;;;;;;;20.10;41.40;;;;;;5051821;28;19924;-65
2023/03/26 04:32:06;;;;;;;;;;;20.10;41.40;;;;;;5053626;28;20373;-66
2023/03/26 04:34:32;;;;;;;;;;;20.10;41.40;;;;;;5050388;28;19993;-66
2023/03/26 04:36:59;;;;;;;;;;;20.10;41.40;;;;;;5053674;28;20035;-66
2023/03/26 04:39:28;;;;;;;;;;;20.10;41.50;;;;;;5070752;28;19963;-66
2023/03/26 04:41:56;;;;;;;;;;;20.10;41.50;;;;;;5053301;28;20038;-66
2023/03/26 04:44:23;;;;;;;;;;;20.10;41.50;;;;;;5053779;28;19924;-66
2023/03/26 04:46:51;;;;;;;;;;;20.10;41.50;;;;;;5053333;28;20019;-66
2023/03/26 04:49:20;;;;;;;;;;;20.10;41.50;;;;;;5053211;28;19936;-66
2023/03/26 04:51:47;;;;;;;;;;;20.10;41.60;;;;;;5053013;28;19920;-66
2023/03/26 04:54:13;;;;;;;;;;;20.10;41.50;;;;;;5050331;28;19924;-67
2023/03/26 04:56:42;;;;;;;;;;;20.10;41.60;;;;;;5052738;28;19928;-67
2023/03/26 04:59:09;;;;;;;;;;;20.10;41.60;;;;;;5053298;28;19939;-67
2023/03/26 05:01:36;;;;;;;;;;;20.10;41.60;;;;;;5051603;28;20263;-66
2023/03/26 05:04:03;;;;;;;;;;;20.10;41.60;;;;;;5054110;28;21022;-66
2023/03/26 05:06:33;;;;;;;;;;;20.10;41.70;;;;;;5052495;28;19925;-66
2023/03/26 05:09:00;;;;;;;;;;;20.10;41.70;;;;;;5052972;28;19974;-66
2023/03/26 05:11:27;;;;;;;;;;;20.10;41.70;;;;;;5052819;28;19920;-66
2023/03/26 05:13:53;;;;;;;;;;;20.10;41.70;;;;;;5052731;28;19924;-66
2023/03/26 05:16:21;;;;;;;;;;;20.10;41.70;;;;;;5068771;28;19921;-67
2023/03/26 05:18:48;;;;;;;;;;;20.10;41.80;;;;;;5052645;28;19935;-66
2023/03/26 05:21:15;;;;;;;;;;;20.10;41.80;;;;;;5068107;28;19971;-66
2023/03/26 05:23:43;;;;;;;;;;;20.20;41.90;;;;;;5052806;28;19981;-65
2023/03/26 05:26:10;;;;;;;;;;;20.20;41.90;;;;;;5069931;28;19920;-67
2023/03/26 05:28:37;;;;;;;;;;;20.10;41.80;;;;;;5052152;28;19931;-66
2023/03/26 05:31:04;;;;;;;;;;;20.20;42.00;;;;;;5052360;28;19956;-67
2023/03/26 05:33:31;;;;;;;;;;;20.10;41.90;;;;;;5051991;28;19926;-66
2023/03/26 05:36:01;;;;;;;;;;;20.20;42.10;;;;;;5052643;28;19966;-67
2023/03/26 05:38:28;;;;;;;;;;;20.20;42.10;;;;;;5051229;28;20357;-66
2023/03/26 05:41:09;;;;;;;;;;;20.20;42.10;;;;;;5070552;28;20317;-67
2023/03/26 05:43:36;;;;;;;;;;;20.20;42.10;;;;;;5050000;28;20362;-66
2023/03/26 05:46:03;;;;;;;;;;;20.20;42.10;;;;;;5051314;28;19937;-66
2023/03/26 05:48:30;;;;;;;;;;;20.20;42.10;;;;;;5050386;28;19977;-66
2023/03/26 05:50:57;;;;;;;;;;;20.20;42.10;;;;;;5069846;28;20210;-65
2023/03/26 05:53:24;;;;;;;;;;;20.20;42.20;;;;;;5053454;28;20336;-67
2023/03/26 05:55:54;;;;;;;;;;;20.20;42.20;;;;;;5048704;28;19925;-67
2023/03/26 05:58:22;;;;;;;;;;;20.20;42.20;;;;;;5051460;28;19927;-66
2023/03/26 06:00:49;;;;;;;;;;;20.20;42.20;;;;;;5051663;28;19924;-65
2023/03/26 06:03:16;;;;;;;;;;;20.20;42.20;;;;;;5051929;28;19920;-67
2023/03/26 06:05:43;;;;;;;;;;;20.20;42.20;;;;;;5068427;28;20001;-67
2023/03/26 06:08:10;;;;;;;;;;;20.20;42.20;;;;;;5048705;28;19920;-66
2023/03/26 06:10:37;;;;;;;;;;;20.20;42.30;;;;;;5050856;28;19921;-66
2023/03/26 06:13:04;;;;;;;;;;;20.20;42.30;;;;;;5051279;28;19920;-65
2023/03/26 06:15:32;;;;;;;;;;;20.20;42.20;;;;;;5048609;28;20354;-67
2023/03/26 06:17:59;;;;;;;;;;;20.20;42.30;;;;;;5051207;28;20000;-66
2023/03/26 06:20:25;;;;;;;;;;;20.20;42.30;;;;;;5050036;28;19928;-66
2023/03/26 06:22:52;;;;;;;;;;;20.20;42.30;;;;;;5051587;28;19921;-66
2023/03/26 06:25:19;;;;;;;;;;;20.20;42.30;;;;;;5051343;28;20305;-67
2023/03/26 06:27:46;;;;;;;;;;;20.10;42.20;;;;;;5050858;28;19924;-67
2023/03/26 06:30:13;;;;;;;;;;;20.20;42.30;;;;;;5056187;28;20317;-67
2023/03/26 06:32:41;;;;;;;;;;;20.20;42.30;;;;;;5054817;28;19974;-67
2023/03/26 06:35:10;;;;;;;;;;;20.20;42.40;;;;;;5054415;28;19920;-65
2023/03/26 06:37:36;;;;;;;;;;;20.20;42.40;;;;;;5055119;28;20003;-65
2023/03/26 06:40:03;;;;;;;;;;;20.20;42.30;;;;;;5054637;28;19920;-66
2023/03/26 06:42:30;;;;;;;;;;;20.20;42.40;;;;;;5054883;28;19925;-66
2023/03/26 06:44:57;;;;;;;;;;;20.20;42.40;;;;;;5055983;28;19920;-66
2023/03/26 06:47:24;;;;;;;;;;;20.20;42.40;;;;;;5055765;28;19928;-67
2023/03/26 06:49:52;;;;;;;;;;;20.20;42.40;;;;;;5073292;28;20325;-66
2023/03/26 06:52:19;;;;;;;;;;;20.20;42.40;;;;;;5056494;28;19929;-67
2023/03/26 06:54:45;;;;;;;;;;;20.20;42.40;;;;;;5061334;28;19924;-66
2023/03/26 06:57:12;;;;;;;;;;;20.20;42.40;;;;;;5054884;28;19974;-67
2023/03/26 06:59:39;;;;;;;;;;;20.20;42.40;;;;;;5038713;28;19927;-65
2023/03/26 07:02:06;;;;;;;;;;;20.20;42.40;;;;;;5055479;28;19920;-66
2023/03/26 07:04:33;;;;;;;;;;;20.20;42.40;;;;;;5073002;28;20310;-64
2023/03/26 07:07:01;;;;;;;;;;;20.20;42.40;;;;;;5056003;28;19924;-67
2023/03/26 07:09:29;;;;;;;;;;;20.20;42.40;;;;;;5054664;28;20268;-67
2023/03/26 07:11:56;;;;;;;;;;;20.20;42.40;;;;;;5051038;28;19967;-66
2023/03/26 07:14:23;;;;;;;;;;;20.20;42.50;;;;;;5055560;28;20309;-65
2023/03/26 07:16:50;;;;;;;;;;;20.20;42.40;;;;;;5072683;28;20045;-65
2023/03/26 07:19:16;;;;;;;;;;;20.20;42.40;;;;;;5054434;28;19921;-67
2023/03/26 07:21:45;;;;;;;;;;;20.20;42.50;;;;;;5055235;28;19927;-63
2023/03/26 07:24:15;;;;;;;;;;;20.20;42.50;;;;;;5058375;28;19920;-68
2023/03/26 07:26:45;;;;;;;;;;;20.20;42.50;;;;;;5061184;28;20023;-66
2023/03/26 07:29:12;;;;;;;;;;;20.20;42.50;;;;;;5072310;28;19943;-67
2023/03/26 07:31:40;;;;;;;;;;;20.20;42.50;;;;;;5073271;28;19920;-67
2023/03/26 07:34:09;;;;;;;;;;;20.20;42.50;;;;;;5054157;28;19960;-67
2023/03/26 07:36:36;;;;;;;;;;;20.20;42.50;;;;;;5053703;28;20409;-66
2023/03/26 07:39:09;;;;;;;;;;;20.20;42.50;;;;;;5053326;28;19920;-67
2023/03/26 07:41:39;;;;;;;;;;;20.20;42.50;;;;;;5054738;28;19921;-67
2023/03/26 07:44:09;;;;;;;;;;;20.20;42.60;;;;;;5053762;28;19974;-64
2023/03/26 07:46:38;;;;;;;;;;;20.20;42.60;;;;;;5055646;28;19924;-68
2023/03/26 07:49:05;;;;;;;;;;;20.20;42.60;;;;;;5055970;28;19928;-67
2023/03/26 07:51:32;;;;;;;;;;;20.20;42.50;;;;;;5072849;28;19920;-66
2023/03/26 07:53:59;;;;;;;;;;;20.20;42.60;;;;;;5053937;28;19986;-67
2023/03/26 07:56:26;;;;;;;;;;;20.20;42.60;;;;;;5072225;28;19921;-68
2023/03/26 07:58:56;;;;;;;;;;;20.20;42.60;;;;;;5054920;28;20006;-67
2023/03/26 08:01:26;;;;;;;;;;;20.20;42.60;;;;;;5072312;28;19921;-67
2023/03/26 08:03:58;;;;;;;;;;;20.20;42.60;;;;;;5070382;28;19920;-67
2023/03/26 08:06:27;;;;;;;;;;;20.20;42.60;;;;;;5054129;28;19925;-66
2023/03/26 08:08:55;;;;;;;;;;;20.20;42.60;;;;;;5055442;28;19950;-67
2023/03/26 08:11:25;;;;;;;;;;;20.20;42.60;;;;;;5053430;28;20363;-65
2023/03/26 08:13:59;;;;;;;;;;;20.20;42.60;;;;;;5053616;28;19931;-66
2023/03/26 08:16:27;;;;;;;;;;;20.20;42.60;;;;;;5069764;28;19969;-65
2023/03/26 08:18:55;;;;;;;;;;;20.20;42.60;;;;;;5053494;28;20479;-66
2023/03/26 08:21:24;;;;;;;;;;;20.20;42.60;;;;;;5053345;28;19966;-63
2023/03/26 08:23:53;;;;;;;;;;;20.20;42.60;;;;;;5053917;28;19920;-67
2023/03/26 08:26:24;;;;;;;;;;;20.20;42.60;;;;;;5071225;28;19946;-67
2023/03/26 08:28:54;;;;;;;;;;;20.20;42.60;;;;;;5052307;28;19990;-66
2023/03/26 08:31:24;;;;;;;;;;;20.20;42.60;;;;;;5061329;28;20357;-66
2023/03/26 08:33:50;;;;;;;;;;;20.20;42.60;;;;;;5058642;28;20007;-66
2023/03/26 08:36:17;;;;;;;;;;;20.20;42.60;;;;;;5053059;28;19921;-64
2023/03/26 08:38:44;;;;;;;;;;;20.20;42.50;;;;;;5061020;28;20354;-66
2023/03/26 08:41:29;;;;;;;;;;;20.20;42.50;;;;;;5070328;28;19920;-67
2023/03/26 08:44:04;;;;;;;;;;;20.20;42.50;;;;;;5058004;28;19924;-66
2023/03/26 08:46:46;;;;;;;;;;;20.30;42.60;;;;;;5054721;28;19928;-66
2023/03/26 08:49:27;;;;;;;;;;;20.20;42.50;;;;;;5052722;28;20317;-66
2023/03/26 08:52:18;;;;;;;;;;;20.20;42.50;;;;;;5053726;28;19920;-66
2023/03/26 08:54:58;;;;;;;;;;;20.20;42.60;;;;;;5052127;28;19935;-66
2023/03/26 08:57:36;;;;;;;;;;;20.20;42.50;;;;;;5070606;28;19920;-66
2023/03/26 09:00:15;;;;;;;;;;;20.20;42.50;;;;;;5053463;28;19924;-66
2023/03/26 09:02:56;;;;;;;;;;;20.30;42.50;;;;;;5049639;28;19974;-66
2023/03/26 09:05:54;;;;;;;;;;;20.20;42.50;;;;;;5069068;28;19950;-64
2023/03/26 09:08:39;;;;;;;;;;;20.30;42.60;;;;;;5003955;28;19972;-65
2023/03/26 09:11:25;;;;;;;;;;;20.20;42.50;;;;;;5045941;28;19964;-66
2023/03/26 09:13:56;;;;;;;;;;;20.20;42.50;;;;;;5050179;28;19928;-66
2023/03/26 09:16:34;;;;;;;;;;;20.30;42.60;;;;;;5070558;28;19938;-64
2023/03/26 09:19:20;;;;;;;;;;;20.20;42.50;;;;;;5052490;28;19942;-66
2023/03/26 09:22:11;;;;;;;;;;;20.30;42.60;;;;;;5052447;28;19925;-66
2023/03/26 09:24:44;;;;;;;;;;;20.30;42.60;;;;;;5035983;28;19924;-65
2023/03/26 09:27:16;;;;;;;;;;;20.30;42.60;;;;;;5052148;28;19920;-66
2023/03/26 09:29:53;;;;;;;;;;;20.30;42.60;;;;;;5052116;28;19920;-66
2023/03/26 09:32:24;;;;;;;;;;;20.30;42.60;;;;;;5051519;28;19924;-65
2023/03/26 09:34:59;;;;;;;;;;;20.30;42.70;;;;;;5050928;28;19920;-66
2023/03/26 09:37:26;;;;;;;;;;;20.30;42.70;;;;;;5053742;28;20060;-62
2023/03/26 09:40:00;;;;;;;;;;;20.30;42.70;;;;;;5054876;28;19927;-66
2023/03/26 09:42:30;;;;;;;;;;;20.30;42.70;;;;;;5052352;28;19932;-65
2023/03/26 09:45:16;;;;;;;;;;;20.30;42.70;;;;;;5052357;28;19920;-56
2023/03/26 09:47:45;;;;;;;;;;;20.30;42.70;;;;;;5050579;28;19974;-57
2023/03/26 09:50:20;;;;;;;;;;;20.30;42.70;;;;;;5049983;28;19925;-57
2023/03/26 09:52:50;;;;;;;;;;;20.30;42.40;;;;;;5069880;28;19967;-56
2023/03/26 09:55:28;;;;;;;;;;;20.30;42.00;;;;;;5057384;28;19924;-57
2023/03/26 09:57:57;;;;;;;;;;;20.30;41.70;;;;;;5051247;28;19927;-57
2023/03/26 10:00:28;;;;;;;;;;;20.30;41.50;;;;;;5070151;28;19956;-56
2023/03/26 10:02:59;;;;;;;;;;;20.20;41.60;;;;;;5051840;28;19920;-56
2023/03/26 10:05:37;;;;;;;;;;;20.30;41.30;;;;;;5049589;28;19950;-55
2023/03/26 10:08:13;;;;;;;;;;;20.20;41.20;;;;;;5069986;28;19928;-53
2023/03/26 10:10:43;;;;;;;;;;;20.20;40.90;;;;;;5054095;28;20306;-54
2023/03/26 10:13:13;;;;;;;;;;;20.20;40.30;;;;;;5051201;28;20014;-56
2023/03/26 10:15:44;;;;;;;;;;;20.20;39.80;;;;;;5051322;28;19978;-55
2023/03/26 10:18:14;;;;;;;;;;;20.10;39.30;;;;;;5045895;28;19932;-55
2023/03/26 10:20:53;;;;;;;;;;;20.10;39.00;;;;;;5049538;28;20014;-55
2023/03/26 10:23:26;;;;;;;;;;;20.10;38.30;;;;;;5052147;28;20007;-49
2023/03/26 10:25:57;;;;;;;;;;;20.00;37.70;;;;;;5051720;28;19920;-54
2023/03/26 10:28:50;;;;;;;;;;;20.00;37.70;;;;;;5056677;28;19924;-53
2023/03/26 10:31:22;;;;;;;;;;;20.00;37.60;;;;;;5049264;28;19989;-53
2023/03/26 10:33:52;;;;;;;;;;;19.90;37.50;;;;;;5052674;28;20421;-53
2023/03/26 10:36:24;;;;;;;;;;;19.90;37.60;;;;;;5050897;28;19960;-49
2023/03/26 10:38:58;;;;;;;;;;;19.90;37.70;;;;;;5054912;28;19921;-56
2023/03/26 10:41:28;;;;;;;;;;;19.90;37.80;;;;;;5039118;28;19920;-55
2023/03/26 10:44:00;;;;;;;;;;;19.90;38.00;;;;;;5067101;28;19982;-53
2023/03/26 10:46:30;;;;;;;;;;;19.90;38.00;;;;;;5056046;28;20031;-51
2023/03/26 10:49:05;;;;;;;;;;;19.90;38.00;;;;;;5053747;28;19928;-55
2023/03/26 10:51:50;;;;;;;;;;;19.90;38.00;;;;;;5067569;28;19978;-55
2023/03/26 10:54:20;;;;;;;;;;;19.90;38.00;;;;;;5065801;28;19932;-55
2023/03/26 10:56:49;;;;;;;;;;;19.90;38.00;;;;;;5054186;28;19966;-51
2023/03/26 10:59:16;;;;;;;;;;;19.90;38.10;;;;;;5053404;28;19920;-52
2023/03/26 11:01:43;;;;;;;;;;;19.90;38.20;;;;;;5067759;28;19928;-55
2023/03/26 11:04:17;;;;;;;;;;;19.90;38.20;;;;;;5051840;28;19920;-56
2023/03/26 11:06:45;;;;;;;;;;;19.90;38.20;;;;;;5053914;28;19921;-54
2023/03/26 11:09:15;;;;;;;;;;;19.90;38.20;;;;;;5058726;28;19970;-55
2023/03/26 11:11:44;;;;;;;;;;;19.90;38.20;;;;;;5055426;28;19977;-56
2023/03/26 11:14:15;;;;;;;;;;;19.90;38.70;;;;;;5056979;28;19933;-53
2023/03/26 11:16:47;;;;;;;;;;;19.90;38.10;;;;;;5057566;28;19924;-54
2023/03/26 11:19:15;;;;;;;;;;;19.90;38.20;;;;;;5068410;28;19921;-53
2023/03/26 11:21:43;;;;;;;;;;;19.90;38.30;;;;;;5059642;28;20009;-57
2023/03/26 11:24:21;;;;;;;;;;;19.90;38.30;;;;;;5062820;28;20046;-52
2023/03/26 11:26:49;;;;;;;;;;;19.90;38.20;;;;;;5070495;28;19924;-55
2023/03/26 11:29:31;;;;;;;;;;;19.90;38.20;;;;;;5060779;28;19921;-55
2023/03/26 11:32:00;;;;;;;;;;;19.90;38.30;;;;;;5066169;28;19928;-51
2023/03/26 11:34:27;;;;;;;;;;;19.90;38.30;;;;;;5062512;28;19994;-51
2023/03/26 11:36:55;;;;;;;;;;;19.90;37.90;;;;;;5057764;28;19920;-53
2023/03/26 11:39:23;;;;;;;;;;;19.90;36.90;;;;;;5069311;28;19928;-54
2023/03/26 11:41:50;;;;;;;;;;;19.90;36.40;;;;;;5070730;28;19925;-54
2023/03/26 11:44:20;;;;;;;;;;;19.80;35.30;;;;;;5054661;28;19928;-55
2023/03/26 11:46:46;;;;;;;;;;;19.80;34.90;;;;;;5055649;28;20125;-57
2023/03/26 11:49:16;;;;;;;;;;;19.70;33.80;;;;;;5061567;28;19970;-57
2023/03/26 11:51:44;;;;;;;;;;;19.60;31.90;;;;;;5057478;28;19982;-55
2023/03/26 11:54:11;;;;;;;;;;;19.50;30.90;;;;;;5060116;28;19982;-64
2023/03/26 11:56:41;;;;;;;;;;;19.40;30.80;;;;;;5068985;28;19936;-66
2023/03/26 11:59:10;;;;;;;;;;;19.30;31.90;;;;;;5053782;28;19928;-66
2023/03/26 12:01:49;;;;;;;;;;;19.20;32.90;;;;;;5055742;28;19920;-67
2023/03/26 12:04:17;;;;;;;;;;;19.20;34.00;;;;;;5062062;28;19927;-66
2023/03/26 12:06:50;;;;;;;;;;;19.20;34.60;;;;;;5055632;28;19936;-66
2023/03/26 12:09:17;;;;;;;;;;;19.20;35.00;;;;;;5054665;28;19924;-67
2023/03/26 12:11:44;;;;;;;;;;;19.30;35.50;;;;;;5055338;28;19977;-67
2023/03/26 12:14:15;;;;;;;;;;;19.30;35.70;;;;;;5053494;28;19939;-66
2023/03/26 12:16:45;;;;;;;;;;;19.30;35.80;;;;;;5054900;28;19926;-58
2023/03/26 12:19:19;;;;;;;;;;;19.30;34.40;;;;;;5070323;28;19967;-68
2023/03/26 12:21:47;;;;;;;;;;;19.30;31.20;;;;;;5056039;28;19920;-67
2023/03/26 12:24:24;;;;;;;;;;;19.20;32.20;;;;;;5053658;28;20317;-66
2023/03/26 12:26:52;;;;;;;;;;;19.20;33.10;;;;;;5055417;28;19928;-61
2023/03/26 12:29:19;;;;;;;;;;;19.20;33.90;;;;;;5047413;28;19970;-68
2023/03/26 12:31:51;;;;;;;;;;;19.20;34.50;;;;;;5072235;28;19982;-66
2023/03/26 12:34:19;;;;;;;;;;;19.20;35.10;;;;;;5046735;28;20368;-67
2023/03/26 12:36:50;;;;;;;;;;;19.20;35.30;;;;;;5067425;28;19922;-68
2023/03/26 12:39:30;;;;;;;;;;;19.30;35.70;;;;;;5071998;28;19960;-67
2023/03/26 12:41:57;;;;;;;;;;;19.30;36.00;;;;;;5070015;28;19928;-68
2023/03/26 12:44:26;;;;;;;;;;;19.40;36.50;;;;;;5072231;28;19920;-68
2023/03/26 12:46:54;;;;;;;;;;;19.40;36.70;;;;;;5066789;28;19924;-66
2023/03/26 12:49:22;;;;;;;;;;;19.50;37.00;;;;;;5070058;28;19985;-70
2023/03/26 12:51:50;;;;;;;;;;;19.50;37.20;;;;;;5058429;28;19921;-71
2023/03/26 12:54:27;;;;;;;;;;;19.60;37.40;;;;;;5062481;28;20010;-70
2023/03/26 12:56:58;;;;;;;;;;;19.60;37.60;;;;;;5060230;28;19927;-66
2023/03/26 12:59:28;;;;;;;;;;;19.70;37.90;;;;;;5053615;28;19994;-67
2023/03/26 13:01:55;;;;;;;;;;;19.70;38.10;;;;;;5056167;28;19963;-66
2023/03/26 13:04:40;;;;;;;;;;;19.70;38.30;;;;;;5056073;28;19920;-65
2023/03/26 13:07:12;;;;;;;;;;;19.80;38.60;;;;;;5057107;28;19924;-65
2023/03/26 13:09:42;;;;;;;;;;;19.80;38.90;;;;;;5054381;28;19929;-64
2023/03/26 13:12:11;;;;;;;;;;;19.90;39.10;;;;;;5069166;28;19933;-65
2023/03/26 13:14:41;;;;;;;;;;;19.90;39.30;;;;;;5055992;28;20441;-65
2023/03/26 13:17:10;;;;;;;;;;;19.90;39.40;;;;;;5070070;28;19920;-68
2023/03/26 13:19:38;;;;;;;;;;;20.00;39.70;;;;;;5058285;28;19960;-64
2023/03/26 13:22:12;;;;;;;;;;;20.00;39.80;;;;;;5073433;28;19939;-68
2023/03/26 13:24:42;;;;;;;;;;;20.00;39.90;;;;;;5056402;28;19928;-65
2023/03/26 13:27:12;;;;;;;;;;;20.10;40.00;;;;;;5055710;28;19932;-66
2023/03/26 13:29:40;;;;;;;;;;;20.10;40.10;;;;;;5054914;28;19928;-71
2023/03/26 13:32:08;;;;;;;;;;;20.10;40.10;;;;;;5069404;28;19920;-67
2023/03/26 13:34:36;;;;;;;;;;;20.10;40.20;;;;;;5068499;28;19920;-67
2023/03/26 13:37:06;;;;;;;;;;;20.10;40.20;;;;;;5053873;28;19966;-68
2023/03/26 13:39:33;;;;;;;;;;;20.10;40.20;;;;;;5068987;28;20370;-64
2023/03/26 13:42:08;;;;;;;;;;;20.20;40.20;;;;;;5053019;28;19974;-70
2023/03/26 13:44:38;;;;;;;;;;;20.10;40.20;;;;;;5052217;28;19920;-66
2023/03/26 13:47:05;;;;;;;;;;;20.20;40.30;;;;;;5051587;28;19921;-71
2023/03/26 13:49:35;;;;;;;;;;;20.10;40.20;;;;;;5052505;28;19920;-68
2023/03/26 13:52:03;;;;;;;;;;;20.10;40.20;;;;;;5068102;28;19920;-66
2023/03/26 13:54:30;;;;;;;;;;;20.20;40.30;;;;;;5052443;28;19925;-71
2023/03/26 13:56:58;;;;;;;;;;;20.20;40.30;;;;;;5064532;28;19967;-71
2023/03/26 13:59:29;;;;;;;;;;;20.20;40.20;;;;;;5068361;28;19939;-66
2023/03/26 14:01:57;;;;;;;;;;;20.20;40.00;;;;;;5068079;28;19924;-70
2023/03/26 14:04:24;;;;;;;;;;;20.20;40.00;;;;;;5058739;28;20002;-66
2023/03/26 14:06:55;;;;;;;;;;;20.20;40.00;;;;;;5053773;28;20050;-69
2023/03/26 14:09:25;;;;;;;;;;;20.20;40.00;;;;;;5052496;28;19956;-69
2023/03/26 14:12:06;;;;;;;;;;;20.10;39.90;;;;;;5059447;28;19920;-70
2023/03/26 14:14:37;;;;;;;;;;;20.20;40.00;;;;;;5049124;28;19920;-71
2023/03/26 14:17:05;;;;;;;;;;;20.10;39.90;;;;;;5058758;28;19928;-70
2023/03/26 14:19:45;;;;;;;;;;;20.20;40.00;;;;;;5063383;28;19933;-70
2023/03/26 14:22:13;;;;;;;;;;;20.10;39.90;;;;;;5070525;28;20389;-69
2023/03/26 14:24:49;;;;;;;;;;;20.20;40.00;;;;;;5068588;28;19928;-68
2023/03/26 14:27:24;;;;;;;;;;;20.20;40.10;;;;;;5070134;28;19928;-70
2023/03/26 14:29:56;;;;;;;;;;;20.10;40.00;;;;;;5052404;28;19935;-69